createdAt,value
2017-09-03T00:01:41.710Z,22.23
2017-09-03T00:04:09.168Z,22.47
2017-09-03T00:06:36.703Z,23.30
2017-09-03T00:09:04.182Z,21.87
2017-09-03T00:11:31.642Z,23.80
2017-09-03T00:13:59.094Z,23.03
2017-09-03T00:16:26.575Z,20.80
2017-09-03T00:18:54.051Z,23.03
2017-09-03T00:21:21.511Z,24.80
2017-09-03T00:23:48.999Z,24.07
2017-09-03T00:26:16.461Z,24.20
2017-09-03T00:28:43.954Z,26.93
2017-09-03T00:31:11.442Z,27.50
2017-09-03T00:33:38.921Z,27.33
2017-09-03T00:36:06.401Z,27.43
2017-09-03T00:38:33.886Z,33.13
2017-09-03T00:41:01.346Z,29.40
2017-09-03T00:43:28.802Z,30.93
2017-09-03T00:45:56.294Z,32.47
2017-09-03T00:48:24.615Z,31.30
2017-09-03T00:50:52.082Z,34.60
2017-09-03T00:53:19.564Z,34.20
2017-09-03T00:55:47.033Z,34.90
2017-09-03T00:58:14.490Z,32.40
2017-09-03T01:00:42.027Z,33.90
2017-09-03T01:03:09.514Z,30.83
2017-09-03T01:05:36.989Z,35.60
2017-09-03T01:08:04.474Z,34.70
2017-09-03T01:10:31.942Z,33.83
2017-09-03T01:12:59.447Z,32.90
2017-09-03T01:15:26.938Z,33.97
2017-09-03T01:17:54.416Z,32.07
2017-09-03T01:20:21.882Z,33.70
2017-09-03T01:22:49.362Z,34.30
2017-09-03T01:25:16.819Z,33.40
2017-09-03T01:27:44.286Z,31.60
2017-09-03T01:30:11.766Z,35.03
2017-09-03T01:32:39.226Z,33.33
2017-09-03T01:35:06.683Z,35.80
2017-09-03T01:37:34.178Z,33.17
2017-09-03T01:40:01.638Z,33.73
2017-09-03T01:42:29.095Z,33.40
2017-09-03T01:44:56.578Z,34.33
2017-09-03T01:47:24.039Z,36.70
2017-09-03T01:49:51.498Z,35.50
2017-09-03T01:52:18.982Z,35.33
2017-09-03T01:54:46.438Z,36.20
2017-09-03T01:57:13.894Z,37.00
2017-09-03T01:59:41.373Z,37.93
2017-09-03T02:02:08.826Z,40.90
2017-09-03T02:04:36.285Z,36.93
2017-09-03T02:07:03.766Z,38.00
2017-09-03T02:09:31.222Z,36.80
2017-09-03T02:11:58.678Z,34.97
2017-09-03T02:14:26.207Z,37.63
2017-09-03T02:16:53.671Z,37.60
2017-09-03T02:19:21.149Z,37.47
2017-09-03T02:21:48.631Z,38.47
2017-09-03T02:24:16.091Z,36.93
2017-09-03T02:26:43.546Z,38.67
2017-09-03T02:29:11.032Z,39.40
2017-09-03T02:31:38.493Z,36.93
2017-09-03T02:34:05.955Z,37.13
2017-09-03T02:36:33.434Z,35.50
2017-09-03T02:39:00.942Z,36.30
2017-09-03T02:41:28.402Z,39.83
2017-09-03T02:43:55.895Z,37.03
2017-09-03T02:46:23.358Z,36.00
2017-09-03T02:48:50.810Z,36.17
2017-09-03T02:51:18.299Z,34.53
2017-09-03T02:53:45.778Z,32.87
2017-09-03T02:56:13.238Z,36.70
2017-09-03T02:58:40.718Z,36.80
2017-09-03T03:01:08.178Z,36.77
2017-09-03T03:03:35.639Z,38.90
2017-09-03T03:06:03.296Z,37.97
2017-09-03T03:08:30.755Z,36.97
2017-09-03T03:10:58.210Z,36.37
2017-09-03T03:13:25.710Z,40.50
2017-09-03T03:15:53.172Z,36.77
2017-09-03T03:18:20.632Z,37.80
2017-09-03T03:20:48.111Z,37.13
2017-09-03T03:23:15.567Z,36.93
2017-09-03T03:25:43.026Z,35.30
2017-09-03T03:28:10.509Z,33.50
2017-09-03T03:30:37.963Z,35.00
2017-09-03T03:33:05.426Z,35.20
2017-09-03T03:35:32.910Z,35.60
2017-09-03T03:38:00.370Z,33.10
2017-09-03T03:40:27.833Z,36.17
2017-09-03T03:42:55.322Z,34.00
2017-09-03T03:45:22.778Z,35.47
2017-09-03T03:47:50.235Z,35.17
2017-09-03T03:50:17.716Z,32.53
2017-09-03T03:52:45.171Z,35.80
2017-09-03T03:55:12.627Z,35.20
2017-09-03T03:57:40.106Z,35.17
2017-09-03T04:00:07.966Z,36.80
2017-09-03T04:02:35.428Z,34.77
2017-09-03T04:05:02.914Z,36.43
2017-09-03T04:07:30.368Z,34.73
2017-09-03T04:09:57.831Z,34.23
2017-09-03T04:12:25.318Z,34.80
2017-09-03T04:14:52.777Z,34.73
2017-09-03T04:17:20.234Z,33.60
2017-09-03T04:19:47.717Z,34.53
2017-09-03T04:22:15.178Z,31.97
2017-09-03T04:24:42.643Z,32.03
2017-09-03T04:27:10.127Z,33.40
2017-09-03T04:29:37.587Z,33.80
2017-09-03T04:32:05.051Z,32.20
2017-09-03T04:34:32.530Z,31.53
2017-09-03T04:36:59.988Z,31.70
2017-09-03T04:39:27.450Z,30.73
2017-09-03T04:41:54.954Z,30.37
2017-09-03T04:44:22.415Z,30.30
2017-09-03T04:46:49.882Z,31.63
2017-09-03T04:49:17.363Z,31.17
2017-09-03T04:51:44.825Z,28.93
2017-09-03T04:54:12.283Z,29.07
2017-09-03T04:56:39.762Z,31.90
2017-09-03T04:59:07.235Z,32.00
2017-09-03T05:01:34.695Z,35.90
2017-09-03T05:04:02.174Z,30.90
2017-09-03T05:06:29.630Z,33.07
2017-09-03T05:08:57.086Z,31.40
2017-09-03T05:11:24.571Z,33.40
2017-09-03T05:13:52.027Z,32.33
2017-09-03T05:16:19.489Z,31.97
2017-09-03T05:18:46.967Z,31.03
2017-09-03T05:21:14.422Z,29.40
2017-09-03T05:23:41.882Z,30.03
2017-09-03T05:26:09.362Z,29.67
2017-09-03T05:28:36.813Z,30.93
2017-09-03T05:31:04.273Z,30.77
2017-09-03T05:33:31.759Z,28.90
2017-09-03T05:35:59.235Z,31.60
2017-09-03T05:38:26.693Z,30.60
2017-09-03T05:40:54.179Z,32.30
2017-09-03T05:43:21.638Z,30.40
2017-09-03T05:45:49.110Z,32.03
2017-09-03T05:48:16.590Z,32.43
2017-09-03T05:50:44.046Z,31.57
2017-09-03T05:53:11.508Z,33.37
2017-09-03T05:55:38.982Z,31.10
2017-09-03T05:58:06.448Z,34.03
2017-09-03T06:00:33.910Z,29.43
2017-09-03T06:03:01.394Z,31.10
2017-09-03T06:05:28.852Z,33.67
2017-09-03T06:07:56.310Z,32.57
2017-09-03T06:10:23.790Z,32.67
2017-09-03T06:12:52.286Z,32.63
2017-09-03T06:15:19.738Z,32.70
2017-09-03T06:17:47.382Z,31.03
2017-09-03T06:20:14.838Z,33.17
2017-09-03T06:22:42.303Z,31.13
2017-09-03T06:25:09.789Z,32.93
2017-09-03T06:27:37.254Z,32.67
2017-09-03T06:30:04.714Z,33.63
2017-09-03T06:32:32.198Z,32.23
2017-09-03T06:34:59.654Z,32.13
2017-09-03T06:37:27.123Z,32.70
2017-09-03T06:39:54.611Z,33.17
2017-09-03T06:42:22.069Z,32.03
2017-09-03T06:44:49.526Z,33.00
2017-09-03T06:47:17.008Z,32.50
2017-09-03T06:49:44.462Z,31.60
2017-09-03T06:52:11.915Z,30.97
2017-09-03T06:54:39.393Z,31.53
2017-09-03T06:57:06.846Z,30.50
2017-09-03T06:59:34.310Z,31.33
2017-09-03T07:02:01.795Z,32.03
2017-09-03T07:04:29.258Z,31.00
2017-09-03T07:06:56.739Z,30.70
2017-09-03T07:09:24.218Z,31.27
2017-09-03T07:11:51.678Z,32.63
2017-09-03T07:14:19.146Z,30.50
2017-09-03T07:16:46.626Z,31.27
2017-09-03T07:19:14.082Z,31.53
2017-09-03T07:21:41.538Z,31.57
2017-09-03T07:24:09.017Z,31.70
2017-09-03T07:26:36.484Z,33.43
2017-09-03T07:29:03.951Z,32.83
2017-09-03T07:31:31.435Z,30.83
2017-09-03T07:33:58.891Z,29.50
2017-09-03T07:36:26.346Z,29.70
2017-09-03T07:38:53.845Z,30.10
2017-09-03T07:41:21.295Z,30.60
2017-09-03T07:43:48.756Z,31.07
2017-09-03T07:46:16.238Z,29.10
2017-09-03T07:48:43.698Z,29.37
2017-09-03T07:51:11.159Z,30.83
2017-09-03T07:53:38.646Z,32.10
2017-09-03T07:56:06.103Z,30.50
2017-09-03T07:58:33.558Z,29.40
2017-09-03T08:01:01.000Z,30.60
2017-09-03T08:03:28.493Z,31.33
2017-09-03T08:05:55.941Z,29.30
2017-09-03T08:08:23.431Z,31.63
2017-09-03T08:10:50.898Z,29.10
2017-09-03T08:13:18.364Z,27.10
2017-09-03T08:15:45.846Z,27.83
2017-09-03T08:18:13.318Z,29.77
2017-09-03T08:20:40.786Z,28.37
2017-09-03T08:23:08.283Z,30.13
2017-09-03T08:25:35.738Z,30.93
2017-09-03T08:28:03.197Z,28.33
2017-09-03T08:30:30.690Z,27.57
2017-09-03T08:32:57.433Z,30.20
2017-09-03T08:35:24.890Z,29.90
2017-09-03T08:37:52.373Z,29.50
2017-09-03T08:40:19.836Z,27.83
2017-09-03T08:42:47.298Z,26.97
2017-09-03T08:45:14.786Z,25.97
2017-09-03T08:47:42.246Z,28.23
2017-09-03T08:50:09.702Z,27.40
2017-09-03T08:52:37.190Z,27.00
2017-09-03T08:55:04.646Z,28.40
2017-09-03T08:57:32.107Z,25.07
2017-09-03T08:59:59.594Z,26.27
2017-09-03T09:02:27.053Z,25.47
2017-09-03T09:04:54.530Z,26.50
2017-09-03T09:07:22.022Z,25.13
2017-09-03T09:09:49.478Z,25.43
2017-09-03T09:12:16.938Z,26.60
2017-09-03T09:14:44.414Z,25.60
2017-09-03T09:17:11.870Z,27.07
2017-09-03T09:19:39.330Z,27.47
2017-09-03T09:22:06.820Z,26.53
2017-09-03T09:24:34.278Z,26.47
2017-09-03T09:27:01.747Z,26.80
2017-09-03T09:29:29.226Z,25.23
2017-09-03T09:31:56.682Z,24.63
2017-09-03T09:34:24.138Z,25.63
2017-09-03T09:36:51.614Z,24.00
2017-09-03T09:39:19.070Z,23.63
2017-09-03T09:41:46.532Z,25.17
2017-09-03T09:44:14.010Z,21.57
2017-09-03T09:46:41.467Z,24.43
2017-09-03T09:49:08.935Z,22.40
2017-09-03T09:51:36.444Z,24.57
2017-09-03T09:54:03.935Z,24.80
2017-09-03T09:56:31.393Z,23.87
2017-09-03T09:58:58.835Z,24.10
2017-09-03T10:01:26.346Z,23.43
2017-09-03T10:03:53.827Z,24.00
2017-09-03T10:06:21.311Z,23.40
2017-09-03T10:08:48.771Z,22.17
2017-09-03T10:11:16.234Z,24.00
2017-09-03T10:13:43.714Z,23.03
2017-09-03T10:16:11.182Z,22.10
2017-09-03T10:18:38.646Z,21.43
2017-09-03T10:21:06.134Z,22.97
2017-09-03T10:23:33.598Z,23.80
2017-09-03T10:26:01.064Z,21.67
2017-09-03T10:28:28.549Z,21.63
2017-09-03T10:30:56.012Z,24.20
2017-09-03T10:33:23.478Z,23.03
2017-09-03T10:35:50.954Z,20.67
2017-09-03T10:38:18.419Z,19.70
2017-09-03T10:40:45.917Z,19.77
2017-09-03T10:43:13.399Z,20.30
2017-09-03T10:45:40.890Z,19.47
2017-09-03T10:48:08.396Z,19.80
2017-09-03T10:50:35.875Z,18.60
2017-09-03T10:53:03.339Z,17.47
2017-09-03T10:55:30.823Z,15.63
2017-09-03T10:57:58.303Z,15.63
2017-09-03T11:00:25.780Z,16.47
2017-09-03T11:02:53.270Z,17.50
2017-09-03T11:05:20.727Z,17.13
2017-09-03T11:07:48.202Z,18.90
2017-09-03T11:10:15.654Z,19.67
2017-09-03T11:12:43.154Z,17.03
2017-09-03T11:15:10.648Z,17.27
2017-09-03T11:17:38.113Z,18.70
2017-09-03T11:20:05.579Z,19.20
2017-09-03T11:22:33.026Z,17.90
2017-09-03T11:25:00.510Z,17.23
2017-09-03T11:27:27.981Z,15.80
2017-09-03T11:29:55.473Z,16.73
2017-09-03T11:32:22.930Z,17.03
2017-09-03T11:34:50.386Z,18.13
2017-09-03T11:37:17.871Z,16.63
2017-09-03T11:39:45.326Z,17.60
2017-09-03T11:42:12.791Z,17.73
2017-09-03T11:44:40.274Z,18.13
2017-09-03T11:47:07.739Z,17.37
2017-09-03T11:49:35.205Z,18.40
2017-09-03T11:52:02.691Z,16.30
2017-09-03T11:54:30.154Z,16.20
2017-09-03T11:56:57.615Z,17.10
2017-09-03T11:59:25.105Z,15.00
2017-09-03T12:01:52.563Z,15.93
2017-09-03T12:04:20.018Z,18.43
2017-09-03T12:06:47.502Z,15.20
2017-09-03T12:09:14.954Z,15.60
2017-09-03T12:11:42.439Z,16.60
2017-09-03T12:14:09.905Z,17.10
2017-09-03T12:16:37.403Z,23.37
2017-09-03T12:19:04.917Z,14.30
2017-09-03T12:21:32.634Z,15.00
2017-09-03T12:24:00.157Z,16.13
2017-09-03T12:26:27.764Z,14.83
2017-09-03T12:28:55.720Z,12.90
2017-09-03T12:31:23.406Z,13.60
2017-09-03T12:33:50.935Z,13.80
2017-09-03T12:36:18.399Z,17.30
2017-09-03T12:38:45.866Z,13.50
2017-09-03T12:41:13.347Z,14.30
2017-09-03T12:43:40.801Z,13.73
2017-09-03T12:46:08.266Z,13.90
2017-09-03T12:48:35.753Z,13.50
2017-09-03T12:51:03.381Z,14.50
2017-09-03T12:53:30.887Z,12.00
2017-09-03T12:55:58.366Z,14.40
2017-09-03T12:58:25.851Z,13.10
2017-09-03T13:00:53.789Z,16.23
2017-09-03T13:03:21.288Z,14.60
2017-09-03T13:05:48.766Z,16.30
2017-09-03T13:08:16.267Z,14.93
2017-09-03T13:10:43.779Z,17.37
2017-09-03T13:13:11.245Z,17.60
2017-09-03T13:15:38.701Z,16.20
2017-09-03T13:18:06.177Z,16.63
2017-09-03T13:20:33.643Z,16.47
2017-09-03T13:23:01.106Z,15.13
2017-09-03T13:25:28.586Z,16.63
2017-09-03T13:27:56.047Z,16.33
2017-09-03T13:30:23.538Z,15.93
2017-09-03T13:32:51.003Z,13.90
2017-09-03T13:35:18.493Z,11.57
2017-09-03T13:37:45.987Z,11.00
2017-09-03T13:40:13.467Z,12.47
2017-09-03T13:42:40.933Z,10.20
2017-09-03T13:45:08.411Z,10.10
2017-09-03T13:47:35.894Z,10.63
2017-09-03T13:50:03.346Z,13.33
2017-09-03T13:52:31.335Z,13.43
2017-09-03T13:54:58.826Z,12.03
2017-09-03T13:57:26.287Z,13.60
2017-09-03T13:59:53.771Z,12.70
2017-09-03T14:02:21.246Z,13.37
2017-09-03T14:04:48.732Z,13.63
2017-09-03T14:07:16.799Z,13.17
2017-09-03T14:09:44.278Z,13.30
2017-09-03T14:12:11.802Z,12.63
2017-09-03T14:14:39.291Z,13.00
2017-09-03T14:17:06.818Z,13.63
2017-09-03T14:19:34.298Z,14.70
2017-09-03T14:22:01.782Z,13.43
2017-09-03T14:24:29.301Z,14.43
2017-09-03T14:26:56.769Z,16.20
2017-09-03T14:29:24.233Z,16.70
2017-09-03T14:31:51.722Z,13.87
2017-09-03T14:34:19.183Z,15.17
2017-09-03T14:36:46.649Z,14.53
2017-09-03T14:39:14.130Z,14.90
2017-09-03T14:41:41.650Z,24.47
2017-09-03T14:44:09.140Z,14.60
2017-09-03T14:46:36.626Z,13.90
2017-09-03T14:49:04.207Z,12.57
2017-09-03T14:51:31.690Z,13.40
2017-09-03T14:53:59.178Z,13.50
2017-09-03T14:56:26.647Z,15.83
2017-09-03T14:58:54.139Z,14.90
2017-09-03T15:01:21.622Z,14.37
2017-09-03T15:03:49.115Z,12.57
2017-09-03T15:06:16.594Z,11.87
2017-09-03T15:08:44.103Z,11.90
2017-09-03T15:11:11.599Z,10.80
2017-09-03T15:13:39.082Z,12.20
2017-09-03T15:16:06.541Z,13.63
2017-09-03T15:18:34.002Z,12.07
2017-09-03T15:21:01.495Z,12.23
2017-09-03T15:23:28.951Z,12.87
2017-09-03T15:25:56.435Z,13.20
2017-09-03T15:28:23.922Z,12.57
2017-09-03T15:30:51.394Z,12.70
2017-09-03T15:33:18.863Z,13.30
2017-09-03T15:35:46.345Z,13.70
2017-09-03T15:38:13.809Z,11.20
2017-09-03T15:40:41.291Z,12.90
2017-09-03T15:43:08.774Z,13.53
2017-09-03T15:45:36.235Z,11.67
2017-09-03T15:48:03.740Z,10.80
2017-09-03T15:50:31.198Z,12.23
2017-09-03T15:52:58.675Z,12.63
2017-09-03T15:55:26.162Z,10.87
2017-09-03T15:57:53.622Z,12.53
2017-09-03T16:00:21.083Z,13.00
2017-09-03T16:02:48.565Z,10.80
2017-09-03T16:05:16.022Z,12.40
2017-09-03T16:07:43.491Z,11.07
2017-09-03T16:10:10.976Z,13.30
2017-09-03T16:12:38.454Z,13.27
2017-09-03T16:15:05.963Z,13.43
2017-09-03T16:17:33.423Z,10.70
2017-09-03T16:20:00.885Z,10.13
2017-09-03T16:22:28.358Z,9.83
2017-09-03T16:24:55.810Z,10.60
2017-09-03T16:27:23.271Z,11.73
2017-09-03T16:29:50.758Z,11.00
2017-09-03T16:32:18.242Z,10.80
2017-09-03T16:34:45.703Z,11.67
2017-09-03T16:37:13.218Z,11.13
2017-09-03T16:39:40.706Z,11.30
2017-09-03T16:42:08.166Z,11.60
2017-09-03T16:44:35.628Z,11.47
2017-09-03T16:47:03.138Z,13.83
2017-09-03T16:49:30.606Z,12.33
2017-09-03T16:51:58.110Z,10.50
2017-09-03T16:54:25.606Z,12.20
2017-09-03T16:56:53.082Z,11.30
2017-09-03T16:59:20.580Z,10.97
2017-09-03T17:01:48.066Z,11.53
2017-09-03T17:04:15.551Z,11.87
2017-09-03T17:06:43.019Z,10.57
2017-09-03T17:09:10.523Z,11.27
2017-09-03T17:11:38.024Z,12.80
2017-09-03T17:14:05.506Z,10.60
2017-09-03T17:16:33.179Z,10.33
2017-09-03T17:19:00.654Z,10.30
2017-09-03T17:21:28.161Z,11.47
2017-09-03T17:23:55.880Z,10.23
2017-09-03T17:26:23.382Z,11.20
2017-09-03T17:28:50.885Z,12.37
2017-09-03T17:31:24.135Z,11.47
2017-09-03T17:33:51.880Z,11.20
2017-09-03T17:36:19.696Z,10.80
2017-09-03T17:38:51.949Z,11.00
2017-09-03T17:41:34.454Z,10.87
2017-09-03T17:44:02.580Z,9.53
2017-09-03T17:46:30.780Z,11.47
2017-09-03T17:48:58.778Z,12.13
2017-09-03T17:51:26.727Z,14.93
2017-09-03T17:53:54.466Z,16.03
2017-09-03T17:56:22.452Z,17.67
2017-09-03T17:58:50.661Z,20.23
2017-09-03T18:01:18.687Z,17.87
2017-09-03T18:03:47.053Z,17.77
2017-09-03T18:06:15.179Z,15.93
2017-09-03T18:08:43.510Z,15.40
2017-09-03T18:11:11.767Z,15.67
2017-09-03T18:13:40.500Z,17.00
2017-09-03T18:16:08.983Z,18.13
2017-09-03T18:18:37.407Z,19.10
2017-09-03T18:21:06.048Z,17.40
2017-09-03T18:23:34.636Z,16.03
2017-09-03T18:26:03.231Z,16.17
2017-09-03T18:28:46.537Z,16.03
2017-09-03T18:31:15.040Z,16.67
2017-09-03T18:33:44.368Z,16.00
2017-09-03T18:36:13.683Z,14.40
2017-09-03T18:41:43.898Z,12.63
2017-09-03T18:44:22.260Z,12.27
2017-09-03T18:46:50.982Z,13.77
2017-09-03T18:49:19.578Z,12.60
2017-09-03T18:51:48.392Z,13.63
2017-09-03T18:54:16.986Z,13.10
2017-09-03T18:56:45.576Z,13.93
2017-09-03T18:59:16.934Z,12.70
2017-09-03T19:01:45.506Z,13.50
2017-09-03T19:04:14.834Z,12.90
2017-09-03T19:06:43.399Z,13.50
2017-09-03T19:09:12.549Z,12.80
2017-09-03T19:11:41.375Z,12.27
2017-09-03T19:14:10.302Z,13.17
2017-09-03T19:16:38.845Z,13.00
2017-09-03T19:19:07.541Z,12.30
2017-09-03T19:21:36.441Z,12.87
2017-09-03T19:24:05.066Z,14.13
2017-09-03T19:26:33.670Z,12.60
2017-09-03T19:29:02.382Z,13.27
2017-09-03T19:31:30.967Z,14.90
2017-09-03T19:33:59.633Z,15.87
2017-09-03T19:36:28.418Z,15.37
2017-09-03T19:38:56.972Z,16.10
2017-09-03T19:41:25.561Z,15.90
2017-09-03T19:43:54.162Z,16.00
2017-09-03T19:46:22.669Z,15.23
2017-09-03T19:48:51.119Z,19.17
2017-09-03T19:51:19.737Z,21.00
2017-09-03T19:53:48.244Z,21.60
2017-09-03T19:56:16.677Z,19.80
2017-09-03T19:58:45.271Z,17.80
2017-09-03T20:01:14.125Z,17.57
2017-09-03T20:03:42.658Z,16.23
2017-09-03T20:06:11.336Z,17.90
2017-09-03T20:08:39.822Z,18.33
2017-09-03T20:11:08.292Z,16.27
2017-09-03T20:13:36.842Z,17.00
2017-09-03T20:16:05.308Z,16.67
2017-09-03T20:18:33.780Z,15.40
2017-09-03T20:21:02.348Z,17.53
2017-09-03T20:23:30.793Z,18.30
2017-09-03T20:25:59.277Z,17.50
2017-09-03T20:28:27.882Z,15.80
2017-09-03T20:30:56.356Z,15.70
2017-09-03T20:33:24.786Z,15.60
2017-09-03T20:35:53.367Z,15.43
2017-09-03T20:38:21.831Z,14.10
2017-09-03T20:40:50.291Z,14.70
2017-09-03T20:43:18.769Z,15.30
2017-09-03T20:45:47.250Z,15.20
2017-09-03T20:48:15.731Z,15.30
2017-09-03T20:50:44.335Z,15.90
2017-09-03T20:53:12.726Z,15.80
2017-09-03T20:55:41.179Z,16.47
2017-09-03T20:58:09.482Z,15.60
2017-09-03T21:00:38.121Z,14.50
2017-09-03T21:03:06.201Z,15.23
2017-09-03T21:05:34.188Z,15.00
2017-09-03T21:08:02.361Z,13.90
2017-09-03T21:10:30.124Z,16.00
2017-09-03T21:12:57.658Z,14.80
2017-09-03T21:15:25.797Z,15.30
2017-09-03T21:17:53.309Z,14.73
2017-09-03T21:20:20.817Z,16.47
2017-09-03T21:22:48.298Z,15.27
2017-09-03T21:25:15.762Z,16.50
2017-09-03T21:27:43.222Z,16.13
2017-09-03T21:30:10.699Z,17.47
2017-09-03T21:32:38.157Z,17.10
2017-09-03T21:35:05.638Z,18.17
2017-09-03T21:37:33.139Z,17.97
2017-09-03T21:40:00.595Z,17.50
2017-09-03T21:42:28.087Z,17.33
2017-09-03T21:44:55.542Z,19.17
2017-09-03T21:47:22.993Z,17.67
2017-09-03T21:49:50.493Z,18.37
2017-09-03T21:52:17.950Z,20.07
2017-09-03T21:54:45.438Z,19.87
2017-09-03T21:57:12.918Z,18.80
2017-09-03T21:59:40.374Z,21.13
2017-09-03T22:02:07.834Z,21.47
2017-09-03T22:04:35.343Z,20.47
2017-09-03T22:07:02.816Z,21.07
2017-09-03T22:09:30.302Z,20.87
2017-09-03T22:11:57.765Z,19.83
2017-09-03T22:14:25.226Z,21.20
2017-09-03T22:16:52.706Z,22.10
2017-09-03T22:19:20.163Z,20.60
2017-09-03T22:21:47.619Z,22.80
2017-09-03T22:24:15.106Z,22.93
2017-09-03T22:26:42.566Z,24.80
2017-09-03T22:29:10.027Z,24.03
2017-09-03T22:31:37.519Z,23.33
2017-09-03T22:34:04.986Z,22.87
2017-09-03T22:36:32.447Z,25.50
2017-09-03T22:38:59.929Z,24.03
2017-09-03T22:41:27.397Z,25.30
2017-09-03T22:43:54.861Z,25.93
2017-09-03T22:46:22.361Z,25.10
2017-09-03T22:48:49.822Z,24.47
2017-09-03T22:51:17.342Z,26.93
2017-09-03T22:53:44.831Z,27.37
2017-09-03T22:56:12.289Z,27.63
2017-09-03T22:58:39.752Z,25.67
2017-09-03T23:01:07.230Z,26.03
2017-09-03T23:03:34.682Z,26.10
2017-09-03T23:06:02.138Z,25.03
2017-09-03T23:08:29.614Z,26.33
2017-09-03T23:10:57.075Z,26.13
2017-09-03T23:13:24.531Z,25.37
2017-09-03T23:15:52.022Z,24.30
2017-09-03T23:18:19.474Z,27.20
2017-09-03T23:20:46.930Z,27.70
2017-09-03T23:23:14.410Z,25.20
2017-09-03T23:25:41.882Z,26.50
2017-09-03T23:28:09.338Z,25.67
2017-09-03T23:30:36.825Z,26.47
2017-09-03T23:33:04.287Z,24.30
2017-09-03T23:35:31.742Z,25.43
2017-09-03T23:37:59.230Z,22.93
2017-09-03T23:40:26.692Z,25.37
2017-09-03T23:42:54.150Z,27.10
2017-09-03T23:45:21.657Z,25.03
2017-09-03T23:47:49.130Z,25.80
2017-09-03T23:50:16.594Z,25.80
2017-09-03T23:52:44.093Z,24.10
2017-09-03T23:55:11.546Z,25.57
2017-09-03T23:57:39.002Z,26.50
